Time;durP1;ratioP1;P1;durP2;ratioP2;P2;SDS_P1;SDS_P2;PMS_P1;PMS_P2;Temp;Humidity;BMP_temperature;BMP_pressure;BME280_temperature;BME280_humidity;BME280_pressure;Samples;Min_cycle;Max_cycle;Signal;HPM_P1;HPM_P2
2022/03/08 00:01:17;;;;;;;0.20;0.10;;;;;;;-0.23;70.26;101030.47;5015677;28;20937;-49
2022/03/08 00:03:43;;;;;;;0.20;0.10;;;;;;;-0.07;69.76;101044.84;5028550;28;20449;-50
2022/03/08 00:06:10;;;;;;;0.20;0.10;;;;;;;-0.18;69.77;101047.16;5019218;28;20505;-51
2022/03/08 00:08:40;;;;;;;0.20;0.10;;;;;;;-0.22;70.27;101036.59;5024129;28;20454;-51
2022/03/08 00:11:07;;;;;;;0.20;0.10;;;;;;;-0.24;70.91;101036.56;5018297;28;20484;-50
2022/03/08 00:13:34;;;;;;;0.20;0.10;;;;;;;-0.13;70.08;101042.06;5024454;28;20549;-51
2022/03/08 00:16:00;;;;;;;0.20;0.10;;;;;;;-0.10;70.24;101035.19;5018052;28;20459;-51
2022/03/08 00:18:28;;;;;;;0.23;0.17;;;;;;;-0.09;69.80;101036.06;5024845;28;20538;-51
2022/03/08 00:20:55;;;;;;;0.77;0.77;;;;;;;-0.09;70.72;101031.72;5017362;28;20518;-51
2022/03/08 00:23:21;;;;;;;0.20;0.10;;;;;;;-0.09;70.50;101036.06;5024811;28;20452;-50
2022/03/08 00:25:51;;;;;;;0.20;0.10;;;;;;;-0.14;70.31;101038.53;5016687;28;21013;-51
2022/03/08 00:28:18;;;;;;;0.20;0.20;;;;;;;-0.08;70.98;101032.63;5025286;28;20510;-51
2022/03/08 00:30:44;;;;;;;0.20;0.10;;;;;;;-0.04;70.55;101031.84;5016433;28;20895;-50
2022/03/08 00:33:12;;;;;;;0.20;0.10;;;;;;;-0.04;70.40;101030.13;5025418;28;20867;-51
2022/03/08 00:35:38;;;;;;;0.20;0.10;;;;;;;-0.02;70.02;101024.94;5027503;28;20488;-52
2022/03/08 00:38:05;;;;;;;0.20;0.10;;;;;;;-0.01;70.36;101034.53;5030486;28;20873;-50
2022/03/08 00:40:32;;;;;;;0.20;0.10;;;;;;;-0.03;70.51;101033.63;5027255;28;20559;-50
2022/03/08 00:42:58;;;;;;;0.20;0.10;;;;;;;-0.09;70.40;101030.84;5028715;28;20968;-51
2022/03/08 00:45:26;;;;;;;0.50;0.50;;;;;;;-0.07;70.31;101032.66;5015108;28;20453;-51
2022/03/08 00:47:52;;;;;;;0.20;0.10;;;;;;;-0.07;70.95;101030.03;5026434;28;20456;-51
2022/03/08 00:50:22;;;;;;;0.20;0.10;;;;;;;-0.17;70.78;101025.41;5014640;28;20980;-50
2022/03/08 00:52:50;;;;;;;0.20;0.10;;;;;;;-0.06;70.56;101015.25;5026890;28;20509;-51
2022/03/08 00:55:18;;;;;;;4.33;1.07;;;;;;;-0.14;70.80;101025.47;5020625;28;20537;-51
2022/03/08 00:57:46;;;;;;;0.20;0.10;;;;;;;-0.07;70.66;101021.31;5020250;28;20448;-51
2022/03/08 01:00:16;;;;;;;0.20;0.20;;;;;;;-0.10;70.78;101024.75;5020844;28;20472;-51
2022/03/08 01:02:42;;;;;;;0.20;0.10;;;;;;;-0.16;70.75;101011.50;5019446;28;20452;-51
2022/03/08 01:05:10;;;;;;;0.43;0.43;;;;;;;-0.10;71.30;101019.53;5020376;28;20445;-51
2022/03/08 01:07:37;;;;;;;0.20;0.10;;;;;;;-0.06;71.34;101004.81;5014304;28;20456;-50
2022/03/08 01:10:07;;;;;;;0.20;0.10;;;;;;;-0.15;71.17;101004.56;5024879;28;20516;-50
2022/03/08 01:12:34;;;;;;;0.20;0.10;;;;;;;-0.13;70.91;101009.00;5014981;28;21027;-51
2022/03/08 01:15:04;;;;;;;0.70;0.67;;;;;;;-0.13;70.85;101010.72;5024861;28;21135;-51
2022/03/08 01:17:31;;;;;;;0.20;0.10;;;;;;;-0.04;71.04;101006.59;5015637;28;20996;-51
2022/03/08 01:19:57;;;;;;;0.20;0.10;;;;;;;-0.17;71.53;101009.75;5024176;28;20476;-51
2022/03/08 01:22:24;;;;;;;3.40;2.53;;;;;;;-0.12;71.02;101002.94;5016171;28;20475;-51
2022/03/08 01:24:52;;;;;;;0.20;0.10;;;;;;;-0.01;71.37;100992.72;5023531;28;20502;-51
2022/03/08 01:27:19;;;;;;;0.20;0.10;;;;;;;-0.06;71.58;100996.97;5016475;28;20559;-51
2022/03/08 01:29:45;;;;;;;0.20;0.10;;;;;;;-0.14;71.45;100993.25;5022821;28;20468;-51
2022/03/08 01:32:12;;;;;;;0.63;0.63;;;;;;;0.04;71.15;100996.34;5016669;28;20502;-51
2022/03/08 01:34:39;;;;;;;0.80;0.77;;;;;;;0.09;70.43;100988.63;5022972;28;20908;-51
2022/03/08 01:37:05;;;;;;;0.20;0.10;;;;;;;0.11;70.60;100992.16;5031942;28;20440;-51
2022/03/08 01:39:32;;;;;;;0.20;0.10;;;;;;;0.01;71.08;100991.06;5022688;28;20542;-51
2022/03/08 01:41:59;;;;;;;0.20;0.10;;;;;;;0.06;70.59;100983.31;5019312;28;20447;-51
2022/03/08 01:44:25;;;;;;;0.20;0.10;;;;;;;0.01;70.48;100978.00;5022197;28;20468;-51
2022/03/08 01:46:52;;;;;;;0.30;0.20;;;;;;;-0.15;72.02;100988.88;5017168;28;20452;-50
2022/03/08 01:49:19;;;;;;;0.20;0.10;;;;;;;-0.09;71.23;100973.38;5022060;28;20468;-50
2022/03/08 01:51:46;;;;;;;0.20;0.10;;;;;;;-0.21;71.83;100975.66;5017175;28;20456;-50
2022/03/08 01:54:12;;;;;;;0.20;0.13;;;;;;;-0.21;72.11;100975.66;5021692;28;20489;-50
2022/03/08 01:56:39;;;;;;;1.17;0.70;;;;;;;-0.27;72.16;100976.41;5017305;28;20456;-50
2022/03/08 01:59:06;;;;;;;0.20;0.10;;;;;;;-0.38;73.16;100972.63;5021326;28;20452;-50
2022/03/08 02:01:33;;;;;;;1.13;1.13;;;;;;;-0.65;73.41;100971.03;5017262;28;20456;-50
2022/03/08 02:04:00;;;;;;;0.20;0.10;;;;;;;-0.50;73.63;100972.28;5026341;28;20447;-50
2022/03/08 02:06:28;;;;;;;1.90;1.80;;;;;;;-0.75;73.76;100969.00;5014590;28;20448;-50
2022/03/08 02:08:54;;;;;;;0.20;0.10;;;;;;;-1.04;74.54;100964.69;5024175;28;20455;-50
2022/03/08 02:11:22;;;;;;;0.20;0.10;;;;;;;-0.73;74.07;100969.03;5013925;28;20460;-50
2022/03/08 02:13:49;;;;;;;0.40;0.40;;;;;;;-0.87;74.56;100965.16;5024418;28;20447;-50
2022/03/08 02:16:15;;;;;;;0.20;0.10;;;;;;;-0.88;74.41;100963.41;5013766;28;20452;-50
2022/03/08 02:18:42;;;;;;;0.20;0.20;;;;;;;-1.01;74.96;100960.44;5024908;28;20897;-51
2022/03/08 02:21:09;;;;;;;0.20;0.10;;;;;;;-0.90;74.21;100952.91;5013286;28;20522;-50
2022/03/08 02:23:36;;;;;;;0.20;0.10;;;;;;;-1.22;75.27;100954.59;5024858;28;20451;-50
2022/03/08 02:26:03;;;;;;;0.20;0.10;;;;;;;-0.95;74.63;100957.13;5013063;28;20449;-50
2022/03/08 02:28:30;;;;;;;0.20;0.20;;;;;;;-0.78;72.64;100955.88;5025247;28;20486;-50
2022/03/08 02:30:57;;;;;;;0.20;0.10;;;;;;;-1.05;73.98;100958.59;5012817;28;20468;-50
2022/03/08 02:33:24;;;;;;;0.20;0.10;;;;;;;-1.04;74.59;100960.34;5025544;28;20459;-50
2022/03/08 02:35:51;;;;;;;4.83;2.00;;;;;;;-0.73;73.31;100958.59;5027540;28;20893;-50
2022/03/08 02:38:17;;;;;;;0.20;0.10;;;;;;;-1.36;75.35;100962.00;5025577;28;20518;-50
2022/03/08 02:40:44;;;;;;;0.20;0.20;;;;;;;-1.30;75.78;100953.47;5018851;28;20503;-51
2022/03/08 02:43:12;;;;;;;0.20;0.10;;;;;;;-1.32;75.92;100968.19;5031882;28;20479;-50
2022/03/08 02:45:39;;;;;;;0.20;0.10;;;;;;;-1.67;77.08;100961.88;5012577;28;20460;-49
2022/03/08 02:48:06;;;;;;;0.20;0.10;;;;;;;-1.81;77.90;100958.84;5025591;28;20452;-50
2022/03/08 02:50:33;;;;;;;0.20;0.10;;;;;;;-1.75;77.38;100963.38;5012224;28;20468;-50
2022/03/08 02:53:01;;;;;;;0.20;0.10;;;;;;;-2.05;78.31;100960.69;5025440;28;20451;-50
2022/03/08 02:55:31;;;;;;;0.20;0.10;;;;;;;-2.11;78.71;100966.56;5012151;28;20488;-51
2022/03/08 02:57:58;;;;;;;0.20;0.10;;;;;;;-2.27;78.92;100964.28;5025296;28;20447;-51
2022/03/08 03:00:27;;;;;;;0.20;0.20;;;;;;;-1.67;77.25;100954.06;5012332;28;20472;-51
2022/03/08 03:02:54;;;;;;;0.63;0.63;;;;;;;-2.33;79.16;100962.38;5025397;28;20854;-51
2022/03/08 03:05:21;;;;;;;0.20;0.20;;;;;;;-2.43;80.37;100953.34;5019210;28;20463;-51
2022/03/08 03:07:49;;;;;;;0.20;0.10;;;;;;;-2.34;79.84;100957.06;5014365;28;20509;-51
2022/03/08 03:10:19;;;;;;;0.20;0.10;;;;;;;-2.64;80.27;100949.09;5022192;28;21051;-51
2022/03/08 03:12:46;;;;;;;0.20;0.10;;;;;;;-2.70;80.76;100958.47;5015571;28;20451;-51
2022/03/08 03:15:15;;;;;;;0.20;0.13;;;;;;;-2.89;80.70;100957.75;5021689;28;20488;-51
2022/03/08 03:17:42;;;;;;;0.20;0.10;;;;;;;-3.03;81.98;100942.53;5015984;28;20887;-50
2022/03/08 03:20:12;;;;;;;0.20;0.10;;;;;;;-2.82;81.55;100941.53;5020868;28;20502;-51
2022/03/08 03:22:38;;;;;;;0.20;0.20;;;;;;;-3.07;81.39;100944.97;5016715;28;20456;-51
2022/03/08 03:25:06;;;;;;;0.20;0.10;;;;;;;-3.14;81.69;100943.88;5020632;28;20480;-50
2022/03/08 03:27:32;;;;;;;0.20;0.10;;;;;;;-2.87;81.68;100954.41;5016215;28;20451;-50
2022/03/08 03:29:59;;;;;;;0.20;0.10;;;;;;;-3.14;81.85;100949.06;5020419;28;20469;-51
2022/03/08 03:32:26;;;;;;;0.20;0.10;;;;;;;-3.22;81.46;100937.50;5016454;28;20451;-50
2022/03/08 03:34:52;;;;;;;0.20;0.10;;;;;;;-3.36;82.29;100938.69;5024026;28;20531;-51
2022/03/08 03:37:20;;;;;;;0.20;0.10;;;;;;;-3.33;83.04;100936.19;5043448;28;20528;-51
2022/03/08 03:39:46;;;;;;;0.20;0.10;;;;;;;-3.17;82.58;100940.25;5027670;28;20634;-52
2022/03/08 03:42:13;;;;;;;0.20;0.10;;;;;;;-3.18;83.07;100941.97;5024263;28;20458;-51
2022/03/08 03:44:40;;;;;;;0.20;0.10;;;;;;;-3.14;82.99;100943.88;5022583;28;20503;-51
2022/03/08 03:47:07;;;;;;;0.30;0.30;;;;;;;-3.17;81.52;100937.66;5020877;28;20451;-51
2022/03/08 03:49:33;;;;;;;0.20;0.10;;;;;;;-3.38;82.78;100938.63;5022032;28;20906;-51
2022/03/08 03:52:00;;;;;;;0.20;0.10;;;;;;;-3.44;82.99;100935.78;5021167;28;20850;-51
2022/03/08 03:54:26;;;;;;;0.20;0.10;;;;;;;-3.43;83.04;100923.69;5021897;28;20523;-51
2022/03/08 03:56:53;;;;;;;0.20;0.10;;;;;;;-3.50;83.14;100937.28;5021279;28;20459;-51
2022/03/08 03:59:20;;;;;;;0.30;0.20;;;;;;;-3.48;83.36;100926.13;5021591;28;20476;-50
2022/03/08 04:01:47;;;;;;;0.20;0.10;;;;;;;-3.57;83.36;100921.44;5021283;28;20497;-51
2022/03/08 04:04:14;;;;;;;0.20;0.10;;;;;;;-3.62;83.91;100927.31;5027800;28;20455;-50
2022/03/08 04:06:40;;;;;;;0.20;0.10;;;;;;;-3.80;83.85;100916.22;5021287;28;20865;-51
2022/03/08 04:09:07;;;;;;;0.20;0.10;;;;;;;-3.71;83.70;100927.81;5021722;28;20941;-53
2022/03/08 04:11:34;;;;;;;0.20;0.10;;;;;;;-3.77;84.20;100927.59;5014756;28;20941;-53
2022/03/08 04:14:01;;;;;;;0.20;0.20;;;;;;;-3.81;84.90;100915.31;5027880;28;20448;-53
2022/03/08 04:16:27;;;;;;;0.20;0.10;;;;;;;-3.76;84.98;100924.16;5021320;28;20988;-52
2022/03/08 04:18:54;;;;;;;0.20;0.10;;;;;;;-3.42;84.63;100922.88;5020502;28;20452;-52
2022/03/08 04:21:21;;;;;;;0.20;0.10;;;;;;;-3.60;84.42;100921.34;5021667;28;20448;-53
2022/03/08 04:23:47;;;;;;;0.20;0.10;;;;;;;-3.72;84.18;100925.16;5020394;28;20487;-53
2022/03/08 04:26:14;;;;;;;0.20;0.10;;;;;;;-3.74;84.75;100922.50;5021514;28;20499;-53
2022/03/08 04:28:41;;;;;;;0.20;0.10;;;;;;;-3.67;84.48;100934.94;5020395;28;20453;-53
2022/03/08 04:31:07;;;;;;;0.20;0.10;;;;;;;-3.69;84.52;100925.31;5020158;28;20471;-53
2022/03/08 04:33:34;;;;;;;0.30;0.23;;;;;;;-3.60;84.92;100921.34;5020864;28;20872;-53
2022/03/08 04:36:01;;;;;;;0.20;0.10;;;;;;;-3.52;84.43;100921.63;5032142;28;20598;-53
2022/03/08 04:38:28;;;;;;;0.20;0.10;;;;;;;-3.66;85.09;100923.72;5026115;28;20449;-53
2022/03/08 04:40:55;;;;;;;0.30;0.23;;;;;;;-3.54;85.08;100925.91;5025511;28;20527;-53
2022/03/08 04:43:22;;;;;;;0.20;0.10;;;;;;;-3.55;84.86;100920.66;5029719;28;20475;-53
2022/03/08 04:45:48;;;;;;;0.20;0.10;;;;;;;-3.60;84.92;100923.03;5013923;28;20445;-52
2022/03/08 04:48:16;;;;;;;0.20;0.10;;;;;;;-3.57;85.38;100917.97;5027419;28;20480;-52
2022/03/08 04:50:43;;;;;;;0.20;0.10;;;;;;;-3.65;85.57;100916.81;5014007;28;20468;-53
2022/03/08 04:53:09;;;;;;;0.20;0.10;;;;;;;-3.76;84.96;100905.09;5027294;28;20447;-53
2022/03/08 04:55:36;;;;;;;0.20;0.20;;;;;;;-3.73;85.67;100907.81;5013785;28;21047;-52
2022/03/08 04:58:03;;;;;;;0.20;0.10;;;;;;;-4.00;86.09;100903.31;5026916;28;20443;-53
2022/03/08 05:00:29;;;;;;;1.03;0.77;;;;;;;-3.83;85.47;100911.78;5013755;28;20523;-53
2022/03/08 05:02:56;;;;;;;0.20;0.10;;;;;;;-3.81;85.86;100909.25;5027136;28;20488;-53
2022/03/08 05:05:23;;;;;;;0.30;0.20;;;;;;;-3.85;85.85;100904.75;5020136;28;20449;-53
2022/03/08 05:07:50;;;;;;;0.20;0.10;;;;;;;-3.94;85.91;100902.69;5016619;28;20452;-53
2022/03/08 05:10:17;;;;;;;0.20;0.10;;;;;;;-3.80;85.55;100901.50;5023461;28;20472;-54
2022/03/08 05:12:43;;;;;;;0.20;0.10;;;;;;;-3.68;86.36;100901.09;5016481;28;20494;-53
2022/03/08 05:15:10;;;;;;;0.20;0.10;;;;;;;-3.33;86.17;100900.69;5023270;28;20550;-53
2022/03/08 05:17:37;;;;;;;0.20;0.10;;;;;;;-3.20;85.97;100898.56;5016953;28;20479;-53
2022/03/08 05:20:05;;;;;;;0.20;0.10;;;;;;;-3.09;85.74;100903.31;5023215;28;20468;-52
2022/03/08 05:22:32;;;;;;;3.17;2.97;;;;;;;-3.01;85.53;100896.69;5017118;28;20448;-53
2022/03/08 05:24:58;;;;;;;0.20;0.10;;;;;;;-2.88;85.17;100890.19;5022731;28;20495;-53
2022/03/08 05:27:25;;;;;;;0.20;0.10;;;;;;;-2.78;85.14;100894.88;5017043;28;20447;-53
2022/03/08 05:29:51;;;;;;;0.20;0.10;;;;;;;-2.23;83.96;100886.31;5022597;28;20559;-54
2022/03/08 05:32:18;;;;;;;0.20;0.10;;;;;;;-2.12;80.98;100884.06;5017590;28;20444;-53
2022/03/08 05:34:44;;;;;;;0.20;0.10;;;;;;;-2.37;82.95;100882.38;5033286;28;20452;-53
2022/03/08 05:37:11;;;;;;;1.63;1.57;;;;;;;-2.23;84.00;100886.31;5042051;28;20506;-53
2022/03/08 05:39:38;;;;;;;0.20;0.10;;;;;;;-2.02;84.88;100882.66;5023804;28;20472;-53
2022/03/08 05:42:05;;;;;;;0.20;0.10;;;;;;;-2.13;84.66;100884.91;5021456;28;20505;-53
2022/03/08 05:44:31;;;;;;;0.20;0.10;;;;;;;-2.11;84.39;100878.91;5021696;28;20953;-52
2022/03/08 05:46:58;;;;;;;0.20;0.10;;;;;;;-2.18;84.35;100882.16;5017578;28;20452;-52
2022/03/08 05:49:25;;;;;;;0.20;0.10;;;;;;;-2.36;84.16;100883.25;5021363;28;20560;-52
2022/03/08 05:51:52;;;;;;;1.53;1.53;;;;;;;-2.41;84.26;100890.94;5017755;28;20460;-52
2022/03/08 05:54:18;;;;;;;0.20;0.10;;;;;;;-2.34;84.58;100892.00;5021188;28;20511;-51
2022/03/08 05:56:45;;;;;;;0.20;0.10;;;;;;;-2.34;84.75;100899.81;5016850;28;20527;-53
2022/03/08 05:59:12;;;;;;;0.20;0.20;;;;;;;-2.31;83.75;100893.00;5021018;28;20503;-52
2022/03/08 06:01:39;;;;;;;0.20;0.10;;;;;;;-2.35;84.96;100898.03;5017752;28;20484;-52
2022/03/08 06:04:06;;;;;;;0.20;0.10;;;;;;;-2.32;84.43;100909.47;5026036;28;20577;-52
2022/03/08 06:06:33;;;;;;;0.20;0.20;;;;;;;-2.45;84.66;100912.50;5013723;28;20448;-53
2022/03/08 06:09:00;;;;;;;0.20;0.10;;;;;;;-2.38;84.29;100911.84;5024703;28;20451;-52
2022/03/08 06:11:26;;;;;;;0.20;0.10;;;;;;;-2.65;85.31;100916.13;5013330;28;20595;-52
2022/03/08 06:13:53;;;;;;;0.20;0.10;;;;;;;-2.62;85.43;100916.22;5025032;28;20455;-52
2022/03/08 06:16:19;;;;;;;0.20;0.10;;;;;;;-2.62;84.92;100918.81;5013332;28;21024;-52
2022/03/08 06:18:46;;;;;;;0.43;0.43;;;;;;;-2.70;85.74;100918.56;5024910;28;20455;-52
2022/03/08 06:21:13;;;;;;;0.20;0.10;;;;;;;-2.67;86.23;100922.97;5013404;28;20472;-52
2022/03/08 06:23:39;;;;;;;0.20;0.10;;;;;;;-2.53;85.61;100924.34;5025465;28;20452;-50
2022/03/08 06:26:06;;;;;;;0.30;0.20;;;;;;;-2.68;85.61;100929.91;5011870;28;20495;-50
2022/03/08 06:28:33;;;;;;;0.20;0.10;;;;;;;-2.65;85.32;100936.94;5025345;28;20497;-50
2022/03/08 06:31:00;;;;;;;0.20;0.10;;;;;;;-2.64;85.29;100946.50;5012692;28;20464;-51
2022/03/08 06:33:26;;;;;;;0.20;0.10;;;;;;;-2.72;86.01;100948.84;5025377;28;20961;-50
2022/03/08 06:35:53;;;;;;;0.20;0.10;;;;;;;-2.65;85.92;100958.63;5028223;28;20564;-50
2022/03/08 06:38:20;;;;;;;0.20;0.10;;;;;;;-2.56;86.08;100955.47;5024887;28;20448;-51
2022/03/08 06:40:46;;;;;;;0.20;0.10;;;;;;;-2.62;86.40;100957.84;5025334;28;20480;-51
2022/03/08 06:43:13;;;;;;;0.20;0.20;;;;;;;-2.60;86.26;100959.69;5028457;28;20448;-50
2022/03/08 06:45:40;;;;;;;0.27;0.23;;;;;;;-2.53;86.66;100965.97;5012491;28;20449;-50
2022/03/08 06:48:06;;;;;;;0.20;0.10;;;;;;;-2.32;85.60;100963.25;5025543;28;20505;-51
2022/03/08 06:50:33;;;;;;;0.20;0.10;;;;;;;-2.36;85.88;100956.16;5010963;28;20469;-50
2022/03/08 06:52:59;;;;;;;0.20;0.20;;;;;;;-2.28;86.13;100955.59;5025232;28;20449;-50
2022/03/08 06:55:26;;;;;;;0.20;0.10;;;;;;;-2.09;85.44;100960.56;5012089;28;20492;-50
2022/03/08 06:57:53;;;;;;;0.20;0.10;;;;;;;-2.16;85.28;100956.00;5025526;28;20495;-50
2022/03/08 07:00:20;;;;;;;0.20;0.10;;;;;;;-2.16;85.40;100950.78;5012412;28;20468;-50
2022/03/08 07:02:46;;;;;;;0.20;0.10;;;;;;;-1.48;85.53;100948.59;5025322;28;20479;-51
2022/03/08 07:05:13;;;;;;;0.30;0.30;;;;;;;-1.07;85.26;100948.94;5019117;28;20945;-50
2022/03/08 07:07:40;;;;;;;0.20;0.10;;;;;;;-0.67;84.32;100946.63;5013351;28;20444;-50
2022/03/08 07:10:07;;;;;;;0.20;0.10;;;;;;;-0.43;83.14;100950.72;5027694;28;20484;-50
2022/03/08 07:12:34;;;;;;;0.20;0.10;;;;;;;-0.26;82.47;100949.44;5016976;28;20502;-51
2022/03/08 07:15:00;;;;;;;0.20;0.10;;;;;;;-0.07;81.50;100940.31;5027430;28;20861;-50
2022/03/08 07:17:27;;;;;;;0.20;0.10;;;;;;;0.07;81.16;100944.16;5016893;28;20452;-50
2022/03/08 07:19:53;;;;;;;0.20;0.10;;;;;;;0.15;80.07;100944.34;5027202;28;20546;-50
2022/03/08 07:22:20;;;;;;;0.20;0.10;;;;;;;0.27;79.66;100942.00;5017176;28;20453;-50
2022/03/08 07:24:47;;;;;;;0.20;0.10;;;;;;;0.35;79.95;100937.84;5027488;28;20452;-50
2022/03/08 07:27:13;;;;;;;0.20;0.10;;;;;;;0.44;79.14;100937.19;5017111;28;20472;-50
2022/03/08 07:29:40;;;;;;;0.20;0.10;;;;;;;0.56;78.82;100940.97;5027069;28;20477;-50
2022/03/08 07:32:07;;;;;;;0.20;0.10;;;;;;;0.66;77.92;100939.41;5017290;28;20506;-50
2022/03/08 07:34:33;;;;;;;0.20;0.10;;;;;;;0.79;78.24;100937.94;5027295;28;20865;-50
2022/03/08 07:37:01;;;;;;;0.20;0.10;;;;;;;0.78;77.75;100942.31;5044130;28;20538;-50
2022/03/08 07:39:27;;;;;;;0.20;0.10;;;;;;;0.88;77.02;100936.41;5023406;28;20475;-51
2022/03/08 07:41:54;;;;;;;0.20;0.10;;;;;;;1.03;76.07;100945.44;5024590;28;20876;-50
2022/03/08 07:44:20;;;;;;;0.20;0.13;;;;;;;1.10;76.17;100947.34;5025596;28;20503;-51
2022/03/08 07:46:51;;;;;;;0.20;0.10;;;;;;;1.28;75.99;100939.84;5018411;28;21013;-50
2022/03/08 07:49:17;;;;;;;0.20;0.10;;;;;;;1.33;74.34;100939.91;5025271;28;20477;-50
2022/03/08 07:51:48;;;;;;;0.20;0.10;;;;;;;1.39;73.54;100938.31;5028245;28;20479;-50
2022/03/08 07:54:15;;;;;;;0.30;0.20;;;;;;;1.48;73.50;100938.47;5025836;28;21007;-50
2022/03/08 07:56:41;;;;;;;0.20;0.10;;;;;;;1.61;72.05;100939.56;5017619;28;20492;-51
2022/03/08 07:59:08;;;;;;;0.20;0.10;;;;;;;1.75;71.98;100939.81;5025915;28;20476;-50
2022/03/08 08:01:34;;;;;;;0.20;0.10;;;;;;;1.85;72.14;100951.38;5016875;28;20503;-50
2022/03/08 08:04:02;;;;;;;0.20;0.20;;;;;;;1.88;71.26;100943.53;5026246;28;20543;-50
2022/03/08 08:06:28;;;;;;;0.20;0.10;;;;;;;2.04;70.87;100940.31;5016715;28;20530;-49
2022/03/08 08:08:55;;;;;;;0.20;0.10;;;;;;;2.15;71.21;100948.38;5026334;28;20452;-51
2022/03/08 08:11:22;;;;;;;0.20;0.10;;;;;;;2.24;69.20;100952.03;5016279;28;20514;-50
2022/03/08 08:13:49;;;;;;;0.20;0.10;;;;;;;2.31;70.90;100947.75;5026238;28;20944;-50
2022/03/08 08:16:17;;;;;;;0.80;0.80;;;;;;;2.52;70.20;100944.56;5016025;28;20550;-50
2022/03/08 08:18:44;;;;;;;0.30;0.30;;;;;;;2.53;70.67;100938.47;5026214;28;20502;-50
2022/03/08 08:21:11;;;;;;;0.20;0.10;;;;;;;2.68;69.02;100939.56;5015652;28;20505;-50
2022/03/08 08:23:38;;;;;;;0.20;0.10;;;;;;;2.75;69.21;100937.03;5026731;28;20463;-50
2022/03/08 08:26:04;;;;;;;0.20;0.10;;;;;;;2.90;69.51;100943.38;5015232;28;20499;-50
2022/03/08 08:28:31;;;;;;;0.20;0.10;;;;;;;3.08;68.44;100942.69;5026938;28;20478;-50
2022/03/08 08:30:58;;;;;;;0.20;0.10;;;;;;;3.12;66.48;100941.00;5014605;28;20587;-50
2022/03/08 08:33:26;;;;;;;0.30;0.30;;;;;;;3.31;66.88;100940.34;5027341;28;20451;-50
2022/03/08 08:35:53;;;;;;;0.20;0.10;;;;;;;3.48;66.40;100940.53;5029978;28;20522;-50
2022/03/08 08:38:19;;;;;;;0.20;0.10;;;;;;;3.51;65.78;100937.94;5040112;28;20459;-52
2022/03/08 08:40:46;;;;;;;0.20;0.10;;;;;;;3.72;64.59;100937.28;5021192;28;20526;-51
2022/03/08 08:43:12;;;;;;;0.20;0.10;;;;;;;3.55;64.50;100935.34;5033389;28;20448;-50
2022/03/08 08:45:39;;;;;;;0.20;0.10;;;;;;;3.85;64.42;100929.53;5014140;28;20449;-50
2022/03/08 08:48:07;;;;;;;0.20;0.10;;;;;;;3.96;64.37;100937.47;5027172;28;20517;-50
2022/03/08 08:50:35;;;;;;;0.20;0.17;;;;;;;3.95;63.08;100929.59;5013996;28;20475;-50
2022/03/08 08:53:02;;;;;;;0.20;0.10;;;;;;;4.06;62.72;100930.56;5026974;28;20452;-50
2022/03/08 08:55:29;;;;;;;0.30;0.20;;;;;;;4.24;62.04;100932.44;5013973;28;20483;-50
2022/03/08 08:57:55;;;;;;;0.30;0.20;;;;;;;4.33;61.83;100932.53;5026739;28;20452;-50
2022/03/08 09:00:22;;;;;;;0.20;0.10;;;;;;;4.62;61.61;100932.72;5013976;28;21002;-50
2022/03/08 09:02:49;;;;;;;0.20;0.20;;;;;;;4.43;60.72;100927.34;5028720;28;20456;-50
2022/03/08 09:05:16;;;;;;;0.20;0.10;;;;;;;4.60;60.00;100923.91;5025689;28;20480;-50
2022/03/08 09:07:43;;;;;;;0.20;0.10;;;;;;;4.73;60.34;100915.22;5015685;28;20902;-50
2022/03/08 09:10:09;;;;;;;0.20;0.20;;;;;;;4.67;60.57;100918.72;5025330;28;20481;-50
2022/03/08 09:12:36;;;;;;;2.40;1.23;;;;;;;4.80;60.41;100924.03;5015506;28;20457;-50
2022/03/08 09:15:04;;;;;;;0.20;0.20;;;;;;;5.00;59.96;100917.97;5025576;28;20511;-50
2022/03/08 09:17:31;;;;;;;0.20;0.10;;;;;;;5.02;58.69;100918.88;5015226;28;20559;-50
2022/03/08 09:19:57;;;;;;;0.20;0.10;;;;;;;4.99;57.88;100917.97;5024898;28;20472;-50
2022/03/08 09:22:24;;;;;;;0.20;0.20;;;;;;;5.07;58.89;100913.59;5015583;28;20846;-50
2022/03/08 09:24:50;;;;;;;0.30;0.20;;;;;;;5.18;59.09;100911.00;5024971;28;21011;-51
2022/03/08 09:27:17;;;;;;;0.20;0.10;;;;;;;5.14;58.28;100910.13;5015677;28;20449;-50
2022/03/08 09:29:46;;;;;;;0.20;0.10;;;;;;;5.27;57.76;100906.66;5024320;28;20508;-50
2022/03/08 09:32:14;;;;;;;0.20;0.10;;;;;;;5.22;56.77;100910.19;5015282;28;20522;-50
2022/03/08 09:34:40;;;;;;;0.20;0.10;;;;;;;5.32;57.25;100898.75;5023670;28;20942;-50
2022/03/08 09:37:08;;;;;;;0.20;0.10;;;;;;;5.39;56.72;100890.00;5041830;28;20583;-51
2022/03/08 09:39:35;;;;;;;0.20;0.10;;;;;;;5.27;56.97;100897.88;5023692;28;20521;-50
2022/03/08 09:42:03;;;;;;;0.30;0.20;;;;;;;5.38;56.63;100895.28;5022495;28;20447;-50
2022/03/08 09:44:30;;;;;;;0.30;0.27;;;;;;;5.51;56.70;100899.69;5021830;28;21012;-50
2022/03/08 09:46:57;;;;;;;0.40;0.33;;;;;;;5.41;56.66;100890.88;5017760;28;20444;-50
2022/03/08 09:49:25;;;;;;;1.57;1.57;;;;;;;5.58;56.13;100897.06;5031570;28;20490;-50
2022/03/08 09:51:53;;;;;;;0.20;0.10;;;;;;;5.62;56.31;100888.28;5015252;28;20456;-50
2022/03/08 09:54:20;;;;;;;0.20;0.20;;;;;;;5.71;55.41;100892.69;5025058;28;20444;-50
2022/03/08 09:56:47;;;;;;;0.20;0.10;;;;;;;5.59;54.72;100887.38;5014259;28;20484;-51
2022/03/08 09:59:16;;;;;;;0.50;0.50;;;;;;;5.74;54.98;100892.69;5023610;28;20471;-50
2022/03/08 10:01:44;;;;;;;0.20;0.10;;;;;;;5.72;53.96;100888.28;5013727;28;20453;-50
2022/03/08 10:04:16;;;;;;;0.40;0.20;;;;;;;5.64;54.20;100877.75;5025318;28;20443;-51
2022/03/08 10:07:11;;;;;;;0.20;0.10;;;;;;;6.07;54.42;100878.66;5023474;28;20464;-50
2022/03/08 10:09:39;;;;;;;0.20;0.10;;;;;;;6.00;54.43;100879.53;5017420;28;20560;-50
2022/03/08 10:12:17;;;;;;;0.20;0.10;;;;;;;6.20;53.79;100867.22;5021707;28;20477;-50
2022/03/08 10:14:44;;;;;;;0.30;0.20;;;;;;;5.84;54.18;100877.75;5018545;28;20830;-50
2022/03/08 10:17:35;;;;;;;0.20;0.10;;;;;;;6.06;54.04;100860.19;5019645;28;20496;-50
2022/03/08 10:20:03;;;;;;;0.27;0.17;;;;;;;6.28;53.61;100861.03;5022069;28;20498;-50
2022/03/08 10:22:33;;;;;;;0.30;0.20;;;;;;;6.09;53.34;100863.69;5015800;28;20475;-50
2022/03/08 10:25:19;;;;;;;0.30;0.30;;;;;;;6.22;52.47;100857.53;5023319;28;20517;-50
2022/03/08 10:27:55;;;;;;;0.30;0.10;;;;;;;6.60;53.82;100855.69;5019592;28;20494;-50
2022/03/08 10:30:26;;;;;;;0.20;0.17;;;;;;;6.63;52.98;100851.25;5017925;28;20468;-50
2022/03/08 10:33:03;;;;;;;0.20;0.10;;;;;;;6.43;52.05;100859.22;5022690;28;20452;-50
2022/03/08 10:35:31;;;;;;;0.20;0.10;;;;;;;6.64;51.06;100850.38;5024502;28;20447;-50
2022/03/08 10:38:05;;;;;;;1.90;1.63;;;;;;;6.61;51.95;100845.09;5030959;28;20542;-51
2022/03/08 10:40:35;;;;;;;0.53;0.53;;;;;;;6.87;52.02;100844.13;5026028;28;20476;-50
2022/03/08 10:43:12;;;;;;;0.30;0.10;;;;;;;6.68;51.60;100848.59;5030084;28;20452;-50
2022/03/08 10:45:47;;;;;;;0.30;0.10;;;;;;;6.60;50.56;100847.75;5029959;28;20516;-50
2022/03/08 10:48:17;;;;;;;0.33;0.30;;;;;;;6.77;51.54;100844.16;5017517;28;20958;-50
2022/03/08 10:50:45;;;;;;;0.30;0.20;;;;;;;6.98;51.28;100843.16;5027789;28;20472;-50
2022/03/08 10:53:13;;;;;;;1.60;1.60;;;;;;;6.90;50.99;100844.97;5018223;28;20484;-51
2022/03/08 10:55:46;;;;;;;0.20;0.20;;;;;;;7.19;50.90;100841.31;5027468;28;20452;-50
2022/03/08 10:58:14;;;;;;;0.20;0.17;;;;;;;7.09;50.27;100843.09;5019571;28;20534;-50
2022/03/08 11:00:43;;;;;;;0.30;0.20;;;;;;;6.89;50.50;100837.06;5025937;28;20468;-50
2022/03/08 11:03:10;;;;;;;0.20;0.10;;;;;;;7.10;50.47;100834.28;5020378;28;20443;-50
2022/03/08 11:05:39;;;;;;;1.23;1.23;;;;;;;7.19;50.06;100821.03;5025696;28;20449;-50
2022/03/08 11:08:06;;;;;;;0.30;0.20;;;;;;;7.26;49.40;100833.31;5020163;28;20952;-50
2022/03/08 11:10:34;;;;;;;0.20;0.10;;;;;;;7.01;49.67;100829.94;5024793;28;20484;-51
2022/03/08 11:13:02;;;;;;;0.20;0.20;;;;;;;7.06;49.58;100814.06;5020780;28;20513;-50
2022/03/08 11:15:31;;;;;;;0.30;0.30;;;;;;;7.45;48.94;100818.22;5024716;28;20510;-51
2022/03/08 11:17:59;;;;;;;0.50;0.50;;;;;;;7.39;48.70;100813.81;5020981;28;20488;-50
2022/03/08 11:20:27;;;;;;;0.30;0.10;;;;;;;7.61;49.09;100806.63;5024055;28;20977;-51
2022/03/08 11:22:57;;;;;;;0.30;0.17;;;;;;;7.70;48.01;100801.25;5021111;28;21008;-50
2022/03/08 11:25:26;;;;;;;0.30;0.20;;;;;;;7.86;47.79;100802.00;5022972;28;20452;-50
2022/03/08 11:28:13;;;;;;;0.20;0.20;;;;;;;8.14;47.08;100796.44;5023209;28;20542;-51
2022/03/08 11:30:45;;;;;;;0.30;0.20;;;;;;;8.01;46.55;100788.59;5030680;28;20522;-51